WS78 weather

River Valley Airport
Rhinelander, Wisconsin, United States

Public forecast

Using degrees Fahrenheit for public forecast. Weather courtesy of forecast.io.

Closest aviation weather report (METAR) to River Valley Airport

Closest report is Rhinelander Oneida County Airport, 4.9 nm (9.1 km) N. Retrieved 2020/02/23 14:53 UTC (29 minutes ago):

KRHI 231453Z AUTO 24008KT 7SM FEW006 M01/M03 A2973 RMK AO2 SLP084 T10111033 55002

Closest aviation forecast (TAF) to River Valley Airport

Forecast is more than 6 hours old.

Closest forecast is Rhinelander Oneida County Airport, 4.9 nm (9.1 km) N. Retrieved 2020/02/23 06:22 UTC (9 hours ago):

TAF KRHI 230520Z 2306/2406 22008KT P6SM SCT150 WS014/24030KT TEMPO 2306/2310 1SM BR SCT003 FM231000 23006KT 1/2SM FZFG BKN003 WS020/28035KT FM231500 24008KT 3SM BR SCT003 WS020/27040KT FM231700 26011G19KT P6SM SCT250 WS020/28040KT FM232300 29009G18KT P6SM BKN022 WS020/31040KT FM240200 30006KT P6SM SCT022 WS019/32040KT